sensor_id;sensor_type;location;lat;lon;timestamp;P1;durP1;ratioP1;P2;durP2;ratioP2
28774;SDS011;15926;51.348;6.596;2022-11-20T05:05:24;26.63;;;12.90;;
28774;SDS011;15926;51.348;6.596;2022-11-20T05:07:50;32.28;;;13.15;;
28774;SDS011;15926;51.348;6.596;2022-11-20T05:10:16;29.20;;;14.88;;
28774;SDS011;15926;51.348;6.596;2022-11-20T05:12:43;28.98;;;13.35;;
28774;SDS011;15926;51.348;6.596;2022-11-20T05:15:09;26.83;;;13.27;;
28774;SDS011;15926;51.348;6.596;2022-11-20T05:17:35;26.63;;;14.40;;
28774;SDS011;15926;51.348;6.596;2022-11-20T05:20:01;26.65;;;13.80;;
28774;SDS011;15926;51.348;6.596;2022-11-20T05:22:27;23.15;;;13.63;;
28774;SDS011;15926;51.348;6.596;2022-11-20T05:24:53;26.85;;;13.88;;
28774;SDS011;15926;51.348;6.596;2022-11-20T05:27:19;27.20;;;13.77;;
28774;SDS011;15926;51.348;6.596;2022-11-20T05:29:45;27.00;;;13.93;;
28774;SDS011;15926;51.348;6.596;2022-11-20T05:32:11;28.52;;;13.55;;
28774;SDS011;15926;51.348;6.596;2022-11-20T05:34:37;28.80;;;13.82;;
28774;SDS011;15926;51.348;6.596;2022-11-20T05:37:03;25.23;;;14.27;;
28774;SDS011;15926;51.348;6.596;2022-11-20T05:39:29;30.40;;;13.95;;
28774;SDS011;15926;51.348;6.596;2022-11-20T05:41:55;28.58;;;13.23;;
28774;SDS011;15926;51.348;6.596;2022-11-20T05:44:40;24.85;;;13.30;;
28774;SDS011;15926;51.348;6.596;2022-11-20T05:47:06;29.52;;;13.88;;
28774;SDS011;15926;51.348;6.596;2022-11-20T05:49:32;28.30;;;13.77;;
28774;SDS011;15926;51.348;6.596;2022-11-20T05:51:58;25.20;;;13.95;;
28774;SDS011;15926;51.348;6.596;2022-11-20T05:54:24;28.35;;;14.07;;
28774;SDS011;15926;51.348;6.596;2022-11-20T05:56:50;22.90;;;13.75;;
28774;SDS011;15926;51.348;6.596;2022-11-20T05:59:16;28.95;;;14.10;;
28774;SDS011;15926;51.348;6.596;2022-11-20T06:01:42;30.55;;;15.07;;
28774;SDS011;15926;51.348;6.596;2022-11-20T06:04:08;29.17;;;13.48;;
28774;SDS011;15926;51.348;6.596;2022-11-20T06:06:34;27.58;;;13.75;;
28774;SDS011;15926;51.348;6.596;2022-11-20T06:09:00;24.67;;;13.88;;
28774;SDS011;15926;51.348;6.596;2022-11-20T06:11:26;23.23;;;12.63;;
28774;SDS011;15926;51.348;6.596;2022-11-20T06:13:52;24.42;;;13.20;;
28774;SDS011;15926;51.348;6.596;2022-11-20T06:16:18;27.58;;;14.05;;
28774;SDS011;15926;51.348;6.596;2022-11-20T06:18:45;26.30;;;13.07;;
28774;SDS011;15926;51.348;6.596;2022-11-20T06:21:13;27.40;;;13.77;;
28774;SDS011;15926;51.348;6.596;2022-11-20T06:23:39;28.38;;;14.10;;
28774;SDS011;15926;51.348;6.596;2022-11-20T06:26:06;24.90;;;13.18;;
28774;SDS011;15926;51.348;6.596;2022-11-20T06:28:34;27.08;;;13.50;;
28774;SDS011;15926;51.348;6.596;2022-11-20T06:31:00;27.85;;;12.85;;
28774;SDS011;15926;51.348;6.596;2022-11-20T06:33:26;34.38;;;15.07;;
28774;SDS011;15926;51.348;6.596;2022-11-20T06:35:55;27.08;;;12.77;;
28774;SDS011;15926;51.348;6.596;2022-11-20T06:38:21;27.35;;;14.18;;
28774;SDS011;15926;51.348;6.596;2022-11-20T06:40:47;30.63;;;13.98;;
28774;SDS011;15926;51.348;6.596;2022-11-20T06:43:13;27.00;;;13.68;;
28774;SDS011;15926;51.348;6.596;2022-11-20T06:45:39;24.02;;;13.20;;
28774;SDS011;15926;51.348;6.596;2022-11-20T06:48:05;26.02;;;13.85;;
28774;SDS011;15926;51.348;6.596;2022-11-20T06:50:31;28.10;;;14.50;;
28774;SDS011;15926;51.348;6.596;2022-11-20T06:52:59;27.35;;;12.80;;
28774;SDS011;15926;51.348;6.596;2022-11-20T06:55:26;24.25;;;13.30;;
28774;SDS011;15926;51.348;6.596;2022-11-20T06:57:51;27.02;;;13.43;;
28774;SDS011;15926;51.348;6.596;2022-11-20T07:00:18;33.15;;;14.57;;
28774;SDS011;15926;51.348;6.596;2022-11-20T07:02:44;26.65;;;13.48;;
28774;SDS011;15926;51.348;6.596;2022-11-20T07:05:10;27.50;;;13.77;;
28774;SDS011;15926;51.348;6.596;2022-11-20T07:07:35;26.75;;;14.23;;
28774;SDS011;15926;51.348;6.596;2022-11-20T07:10:02;28.65;;;13.73;;
28774;SDS011;15926;51.348;6.596;2022-11-20T07:12:28;26.45;;;13.77;;
28774;SDS011;15926;51.348;6.596;2022-11-20T07:14:54;28.73;;;13.98;;
28774;SDS011;15926;51.348;6.596;2022-11-20T07:17:20;30.60;;;14.43;;
28774;SDS011;15926;51.348;6.596;2022-11-20T07:19:46;30.67;;;14.50;;
28774;SDS011;15926;51.348;6.596;2022-11-20T07:22:11;30.90;;;15.52;;
28774;SDS011;15926;51.348;6.596;2022-11-20T07:24:38;30.48;;;15.80;;
28774;SDS011;15926;51.348;6.596;2022-11-20T07:27:04;26.80;;;14.70;;
28774;SDS011;15926;51.348;6.596;2022-11-20T07:29:30;32.53;;;15.48;;
28774;SDS011;15926;51.348;6.596;2022-11-20T07:31:56;33.58;;;15.18;;
28774;SDS011;15926;51.348;6.596;2022-11-20T07:34:22;31.05;;;14.93;;
28774;SDS011;15926;51.348;6.596;2022-11-20T07:36:48;29.88;;;14.38;;
28774;SDS011;15926;51.348;6.596;2022-11-20T07:39:14;23.92;;;13.43;;
28774;SDS011;15926;51.348;6.596;2022-11-20T07:41:40;30.20;;;14.45;;
28774;SDS011;15926;51.348;6.596;2022-11-20T07:44:06;23.77;;;14.10;;
28774;SDS011;15926;51.348;6.596;2022-11-20T07:46:32;28.95;;;14.60;;
28774;SDS011;15926;51.348;6.596;2022-11-20T07:48:58;27.35;;;14.35;;
28774;SDS011;15926;51.348;6.596;2022-11-20T07:51:24;28.33;;;14.90;;
28774;SDS011;15926;51.348;6.596;2022-11-20T07:53:54;25.70;;;13.63;;
28774;SDS011;15926;51.348;6.596;2022-11-20T07:56:20;30.65;;;15.00;;
28774;SDS011;15926;51.348;6.596;2022-11-20T07:58:45;27.60;;;14.27;;
28774;SDS011;15926;51.348;6.596;2022-11-20T08:01:12;25.80;;;14.70;;
28774;SDS011;15926;51.348;6.596;2022-11-20T08:03:38;30.80;;;13.95;;
28774;SDS011;15926;51.348;6.596;2022-11-20T08:06:04;30.70;;;14.38;;
28774;SDS011;15926;51.348;6.596;2022-11-20T08:08:30;28.05;;;14.95;;
28774;SDS011;15926;51.348;6.596;2022-11-20T08:10:56;39.17;;;14.45;;
28774;SDS011;15926;51.348;6.596;2022-11-20T08:13:41;31.63;;;15.02;;
28774;SDS011;15926;51.348;6.596;2022-11-20T08:16:25;26.88;;;14.60;;
28774;SDS011;15926;51.348;6.596;2022-11-20T08:18:51;31.02;;;15.23;;
28774;SDS011;15926;51.348;6.596;2022-11-20T08:21:17;26.65;;;14.35;;
28774;SDS011;15926;51.348;6.596;2022-11-20T08:23:43;23.92;;;13.85;;
28774;SDS011;15926;51.348;6.596;2022-11-20T08:26:09;26.27;;;13.45;;
28774;SDS011;15926;51.348;6.596;2022-11-20T08:28:35;33.20;;;15.77;;
28774;SDS011;15926;51.348;6.596;2022-11-20T08:31:02;32.40;;;16.60;;
28774;SDS011;15926;51.348;6.596;2022-11-20T08:33:28;30.85;;;16.70;;
28774;SDS011;15926;51.348;6.596;2022-11-20T08:36:02;30.83;;;15.35;;
28774;SDS011;15926;51.348;6.596;2022-11-20T08:38:29;30.40;;;15.23;;
28774;SDS011;15926;51.348;6.596;2022-11-20T08:41:02;33.40;;;17.48;;
28774;SDS011;15926;51.348;6.596;2022-11-20T08:43:48;34.58;;;15.95;;
28774;SDS011;15926;51.348;6.596;2022-11-20T08:46:15;29.67;;;16.80;;
28774;SDS011;15926;51.348;6.596;2022-11-20T08:48:41;33.92;;;15.95;;
28774;SDS011;15926;51.348;6.596;2022-11-20T08:51:07;34.38;;;18.05;;
28774;SDS011;15926;51.348;6.596;2022-11-20T08:53:33;33.08;;;17.27;;
28774;SDS011;15926;51.348;6.596;2022-11-20T08:55:59;31.63;;;17.90;;
28774;SDS011;15926;51.348;6.596;2022-11-20T08:58:25;31.50;;;16.70;;
28774;SDS011;15926;51.348;6.596;2022-11-20T09:00:52;29.02;;;16.48;;
28774;SDS011;15926;51.348;6.596;2022-11-20T09:03:18;30.48;;;16.08;;
28774;SDS011;15926;51.348;6.596;2022-11-20T09:05:44;30.83;;;16.73;;
28774;SDS011;15926;51.348;6.596;2022-11-20T09:08:10;29.75;;;16.00;;
28774;SDS011;15926;51.348;6.596;2022-11-20T09:10:36;28.50;;;16.17;;
28774;SDS011;15926;51.348;6.596;2022-11-20T09:13:04;30.20;;;16.10;;
28774;SDS011;15926;51.348;6.596;2022-11-20T09:15:31;26.23;;;15.48;;
28774;SDS011;15926;51.348;6.596;2022-11-20T09:17:58;28.52;;;14.52;;
28774;SDS011;15926;51.348;6.596;2022-11-20T09:20:24;26.98;;;14.52;;
28774;SDS011;15926;51.348;6.596;2022-11-20T09:22:50;30.13;;;15.18;;
28774;SDS011;15926;51.348;6.596;2022-11-20T09:25:17;27.40;;;13.98;;
28774;SDS011;15926;51.348;6.596;2022-11-20T09:27:43;25.30;;;14.20;;
28774;SDS011;15926;51.348;6.596;2022-11-20T09:30:11;25.58;;;14.05;;
28774;SDS011;15926;51.348;6.596;2022-11-20T09:32:38;28.92;;;14.80;;
28774;SDS011;15926;51.348;6.596;2022-11-20T09:35:04;26.02;;;14.48;;
28774;SDS011;15926;51.348;6.596;2022-11-20T09:37:30;26.45;;;14.13;;
28774;SDS011;15926;51.348;6.596;2022-11-20T09:39:56;26.77;;;13.45;;
28774;SDS011;15926;51.348;6.596;2022-11-20T09:42:37;25.77;;;13.98;;
28774;SDS011;15926;51.348;6.596;2022-11-20T09:53:01;26.85;;;14.00;;
28774;SDS011;15926;51.348;6.596;2022-11-20T09:55:29;27.00;;;14.20;;
28774;SDS011;15926;51.348;6.596;2022-11-20T09:57:56;26.45;;;13.60;;
28774;SDS011;15926;51.348;6.596;2022-11-20T10:00:23;25.98;;;13.52;;
28774;SDS011;15926;51.348;6.596;2022-11-20T10:05:18;26.50;;;14.15;;
28774;SDS011;15926;51.348;6.596;2022-11-20T10:07:48;30.17;;;15.63;;
28774;SDS011;15926;51.348;6.596;2022-11-20T10:15:33;29.42;;;14.07;;
28774;SDS011;15926;51.348;6.596;2022-11-20T10:24:34;29.63;;;14.68;;
28774;SDS011;15926;51.348;6.596;2022-11-20T10:26:46;27.45;;;14.10;;
28774;SDS011;15926;51.348;6.596;2022-11-20T10:32:17;33.35;;;14.35;;
28774;SDS011;15926;51.348;6.596;2022-11-20T10:37:18;35.25;;;15.25;;
28774;SDS011;15926;51.348;6.596;2022-11-20T10:44:58;40.00;;;15.90;;
28774;SDS011;15926;51.348;6.596;2022-11-20T10:47:30;41.92;;;15.68;;
28774;SDS011;15926;51.348;6.596;2022-11-20T10:49:57;35.35;;;15.35;;
28774;SDS011;15926;51.348;6.596;2022-11-20T10:57:54;40.28;;;15.95;;
28774;SDS011;15926;51.348;6.596;2022-11-20T11:00:24;39.35;;;16.35;;
28774;SDS011;15926;51.348;6.596;2022-11-20T11:02:51;35.75;;;15.70;;
28774;SDS011;15926;51.348;6.596;2022-11-20T11:07:44;39.13;;;16.75;;
28774;SDS011;15926;51.348;6.596;2022-11-20T11:12:42;40.92;;;15.20;;
28774;SDS011;15926;51.348;6.596;2022-11-20T11:17:53;30.50;;;14.77;;
28774;SDS011;15926;51.348;6.596;2022-11-20T11:20:23;44.83;;;16.67;;
28774;SDS011;15926;51.348;6.596;2022-11-20T11:22:51;33.20;;;15.57;;
28774;SDS011;15926;51.348;6.596;2022-11-20T11:25:28;34.42;;;14.88;;
28774;SDS011;15926;51.348;6.596;2022-11-20T11:27:56;34.35;;;15.65;;
28774;SDS011;15926;51.348;6.596;2022-11-20T11:30:23;33.60;;;15.05;;
28774;SDS011;15926;51.348;6.596;2022-11-20T11:32:49;33.17;;;15.85;;
28774;SDS011;15926;51.348;6.596;2022-11-20T11:35:20;32.10;;;15.88;;
28774;SDS011;15926;51.348;6.596;2022-11-20T11:37:46;34.47;;;15.15;;
28774;SDS011;15926;51.348;6.596;2022-11-20T11:40:13;32.83;;;15.48;;
28774;SDS011;15926;51.348;6.596;2022-11-20T11:42:43;33.08;;;15.30;;
28774;SDS011;15926;51.348;6.596;2022-11-20T11:45:16;31.55;;;14.18;;
28774;SDS011;15926;51.348;6.596;2022-11-20T11:52:49;29.45;;;13.75;;
28774;SDS011;15926;51.348;6.596;2022-11-20T11:55:18;35.05;;;15.52;;
28774;SDS011;15926;51.348;6.596;2022-11-20T11:57:48;31.65;;;14.27;;
28774;SDS011;15926;51.348;6.596;2022-11-20T12:00:16;32.88;;;15.07;;
28774;SDS011;15926;51.348;6.596;2022-11-20T12:02:54;29.80;;;13.90;;
28774;SDS011;15926;51.348;6.596;2022-11-20T12:05:24;28.83;;;14.18;;
28774;SDS011;15926;51.348;6.596;2022-11-20T12:13:01;27.42;;;13.02;;
28774;SDS011;15926;51.348;6.596;2022-11-20T12:15:32;27.13;;;13.52;;
28774;SDS011;15926;51.348;6.596;2022-11-20T12:17:58;24.88;;;12.75;;
28774;SDS011;15926;51.348;6.596;2022-11-20T12:20:27;27.25;;;12.35;;
28774;SDS011;15926;51.348;6.596;2022-11-20T12:30:20;27.42;;;12.45;;
28774;SDS011;15926;51.348;6.596;2022-11-20T12:46:03;26.05;;;12.30;;
28774;SDS011;15926;51.348;6.596;2022-11-20T12:53:42;24.98;;;14.23;;
28774;SDS011;15926;51.348;6.596;2022-11-20T13:04:08;25.80;;;12.02;;
28774;SDS011;15926;51.348;6.596;2022-11-20T13:06:26;28.23;;;13.45;;
28774;SDS011;15926;51.348;6.596;2022-11-20T13:08:54;27.58;;;13.45;;
28774;SDS011;15926;51.348;6.596;2022-11-20T13:16:34;29.55;;;12.98;;
28774;SDS011;15926;51.348;6.596;2022-11-20T13:19:07;29.02;;;13.10;;
28774;SDS011;15926;51.348;6.596;2022-11-20T13:21:36;27.13;;;13.15;;
28774;SDS011;15926;51.348;6.596;2022-11-20T13:24:06;28.77;;;13.55;;
28774;SDS011;15926;51.348;6.596;2022-11-20T13:26:33;26.52;;;13.63;;
28774;SDS011;15926;51.348;6.596;2022-11-20T13:29:02;29.30;;;14.27;;
28774;SDS011;15926;51.348;6.596;2022-11-20T13:33:54;26.63;;;12.88;;
28774;SDS011;15926;51.348;6.596;2022-11-20T13:36:22;27.25;;;14.07;;
28774;SDS011;15926;51.348;6.596;2022-11-20T13:38:50;26.48;;;13.55;;
28774;SDS011;15926;51.348;6.596;2022-11-20T13:41:23;29.35;;;13.27;;
28774;SDS011;15926;51.348;6.596;2022-11-20T13:43:52;35.08;;;14.48;;
28774;SDS011;15926;51.348;6.596;2022-11-20T13:46:19;33.88;;;14.70;;
28774;SDS011;15926;51.348;6.596;2022-11-20T13:48:49;36.38;;;14.40;;
28774;SDS011;15926;51.348;6.596;2022-11-20T13:54:29;31.20;;;14.63;;
28774;SDS011;15926;51.348;6.596;2022-11-20T13:59:19;32.25;;;14.57;;
28774;SDS011;15926;51.348;6.596;2022-11-20T14:01:49;30.08;;;14.23;;
28774;SDS011;15926;51.348;6.596;2022-11-20T14:04:17;27.77;;;14.45;;
28774;SDS011;15926;51.348;6.596;2022-11-20T14:09:32;29.13;;;13.55;;
28774;SDS011;15926;51.348;6.596;2022-11-20T14:11:57;31.67;;;14.40;;
28774;SDS011;15926;51.348;6.596;2022-11-20T14:14:24;28.00;;;14.68;;
28774;SDS011;15926;51.348;6.596;2022-11-20T14:16:51;30.45;;;14.93;;
28774;SDS011;15926;51.348;6.596;2022-11-20T14:22:21;33.20;;;15.68;;
28774;SDS011;15926;51.348;6.596;2022-11-20T14:24:39;34.28;;;15.15;;
28774;SDS011;15926;51.348;6.596;2022-11-20T14:27:10;33.47;;;15.20;;
28774;SDS011;15926;51.348;6.596;2022-11-20T14:29:37;37.88;;;16.77;;
28774;SDS011;15926;51.348;6.596;2022-11-20T14:32:05;33.70;;;15.70;;
28774;SDS011;15926;51.348;6.596;2022-11-20T14:34:32;39.45;;;15.38;;
28774;SDS011;15926;51.348;6.596;2022-11-20T14:37:05;33.53;;;16.13;;
28774;SDS011;15926;51.348;6.596;2022-11-20T14:39:33;36.50;;;16.42;;
28774;SDS011;15926;51.348;6.596;2022-11-20T14:41:59;37.25;;;15.43;;
28774;SDS011;15926;51.348;6.596;2022-11-20T14:44:30;38.55;;;17.02;;
28774;SDS011;15926;51.348;6.596;2022-11-20T14:46:57;37.38;;;17.13;;
28774;SDS011;15926;51.348;6.596;2022-11-20T14:49:24;34.83;;;15.70;;
28774;SDS011;15926;51.348;6.596;2022-11-20T14:52:00;37.85;;;16.75;;
28774;SDS011;15926;51.348;6.596;2022-11-20T14:54:27;35.35;;;15.55;;
28774;SDS011;15926;51.348;6.596;2022-11-20T14:56:55;35.55;;;16.42;;
28774;SDS011;15926;51.348;6.596;2022-11-20T14:59:25;42.22;;;17.52;;
28774;SDS011;15926;51.348;6.596;2022-11-20T15:01:56;34.63;;;16.25;;
28774;SDS011;15926;51.348;6.596;2022-11-20T15:04:23;34.30;;;16.83;;
28774;SDS011;15926;51.348;6.596;2022-11-20T15:06:50;34.55;;;16.55;;
28774;SDS011;15926;51.348;6.596;2022-11-20T15:09:16;40.72;;;16.85;;
28774;SDS011;15926;51.348;6.596;2022-11-20T15:11:50;39.45;;;15.75;;
28774;SDS011;15926;51.348;6.596;2022-11-20T15:14:17;40.10;;;17.92;;
28774;SDS011;15926;51.348;6.596;2022-11-20T15:16:43;38.35;;;16.92;;
28774;SDS011;15926;51.348;6.596;2022-11-20T15:19:15;40.20;;;17.40;;
28774;SDS011;15926;51.348;6.596;2022-11-20T15:21:42;42.75;;;17.77;;
28774;SDS011;15926;51.348;6.596;2022-11-20T15:24:08;40.72;;;16.38;;
28774;SDS011;15926;51.348;6.596;2022-11-20T15:26:34;39.80;;;17.27;;
28774;SDS011;15926;51.348;6.596;2022-11-20T15:29:01;38.20;;;16.67;;
28774;SDS011;15926;51.348;6.596;2022-11-20T15:31:28;34.92;;;15.57;;
28774;SDS011;15926;51.348;6.596;2022-11-20T15:33:53;39.75;;;16.98;;
28774;SDS011;15926;51.348;6.596;2022-11-20T15:36:19;41.83;;;17.15;;
28774;SDS011;15926;51.348;6.596;2022-11-20T15:38:46;38.17;;;17.38;;
28774;SDS011;15926;51.348;6.596;2022-11-20T15:41:12;40.67;;;18.52;;
28774;SDS011;15926;51.348;6.596;2022-11-20T15:43:38;33.47;;;17.08;;
28774;SDS011;15926;51.348;6.596;2022-11-20T15:46:13;38.58;;;16.27;;
28774;SDS011;15926;51.348;6.596;2022-11-20T15:48:49;35.47;;;15.73;;
28774;SDS011;15926;51.348;6.596;2022-11-20T15:53:45;39.80;;;17.83;;
28774;SDS011;15926;51.348;6.596;2022-11-20T15:56:12;39.45;;;16.27;;
28774;SDS011;15926;51.348;6.596;2022-11-20T15:58:38;38.10;;;16.88;;
28774;SDS011;15926;51.348;6.596;2022-11-20T16:01:04;41.40;;;16.63;;
28774;SDS011;15926;51.348;6.596;2022-11-20T16:03:30;40.25;;;17.92;;
28774;SDS011;15926;51.348;6.596;2022-11-20T16:05:56;39.45;;;16.73;;
28774;SDS011;15926;51.348;6.596;2022-11-20T16:08:23;37.50;;;16.83;;
28774;SDS011;15926;51.348;6.596;2022-11-20T16:10:49;34.55;;;15.73;;
28774;SDS011;15926;51.348;6.596;2022-11-20T16:13:16;33.65;;;16.20;;
28774;SDS011;15926;51.348;6.596;2022-11-20T16:16:02;36.08;;;15.15;;
28774;SDS011;15926;51.348;6.596;2022-11-20T16:18:30;33.00;;;14.75;;
28774;SDS011;15926;51.348;6.596;2022-11-20T16:20:56;40.75;;;16.20;;
28774;SDS011;15926;51.348;6.596;2022-11-20T16:23:22;35.85;;;14.68;;
28774;SDS011;15926;51.348;6.596;2022-11-20T16:25:49;37.88;;;16.20;;
28774;SDS011;15926;51.348;6.596;2022-11-20T16:28:15;35.90;;;16.20;;
28774;SDS011;15926;51.348;6.596;2022-11-20T16:30:41;38.47;;;16.17;;
28774;SDS011;15926;51.348;6.596;2022-11-20T16:33:11;30.52;;;16.65;;
28774;SDS011;15926;51.348;6.596;2022-11-20T16:35:37;40.15;;;16.73;;
28774;SDS011;15926;51.348;6.596;2022-11-20T16:38:03;39.85;;;15.10;;
28774;SDS011;15926;51.348;6.596;2022-11-20T16:40:29;33.03;;;14.90;;
28774;SDS011;15926;51.348;6.596;2022-11-20T16:42:55;32.03;;;15.18;;
28774;SDS011;15926;51.348;6.596;2022-11-20T16:45:22;32.28;;;13.90;;
28774;SDS011;15926;51.348;6.596;2022-11-20T16:47:48;31.52;;;13.48;;
28774;SDS011;15926;51.348;6.596;2022-11-20T16:50:14;31.73;;;14.68;;
28774;SDS011;15926;51.348;6.596;2022-11-20T16:52:40;30.40;;;13.90;;
28774;SDS011;15926;51.348;6.596;2022-11-20T16:55:06;33.08;;;14.23;;
28774;SDS011;15926;51.348;6.596;2022-11-20T16:57:33;37.78;;;15.80;;
28774;SDS011;15926;51.348;6.596;2022-11-20T16:59:59;34.55;;;14.98;;
28774;SDS011;15926;51.348;6.596;2022-11-20T17:02:25;43.35;;;15.68;;
28774;SDS011;15926;51.348;6.596;2022-11-20T17:04:51;37.05;;;16.88;;
28774;SDS011;15926;51.348;6.596;2022-11-20T17:07:17;35.72;;;15.77;;
28774;SDS011;15926;51.348;6.596;2022-11-20T17:09:43;37.50;;;14.90;;
28774;SDS011;15926;51.348;6.596;2022-11-20T17:12:09;34.58;;;15.07;;
28774;SDS011;15926;51.348;6.596;2022-11-20T17:14:35;40.45;;;17.10;;
28774;SDS011;15926;51.348;6.596;2022-11-20T17:17:02;29.90;;;15.23;;
28774;SDS011;15926;51.348;6.596;2022-11-20T17:19:28;32.33;;;14.68;;
28774;SDS011;15926;51.348;6.596;2022-11-20T17:21:54;36.72;;;14.73;;
28774;SDS011;15926;51.348;6.596;2022-11-20T17:24:20;37.40;;;15.40;;
28774;SDS011;15926;51.348;6.596;2022-11-20T17:26:47;32.47;;;13.93;;
28774;SDS011;15926;51.348;6.596;2022-11-20T17:29:14;29.30;;;12.77;;
28774;SDS011;15926;51.348;6.596;2022-11-20T17:31:41;33.53;;;14.18;;
28774;SDS011;15926;51.348;6.596;2022-11-20T17:34:08;34.33;;;13.02;;
28774;SDS011;15926;51.348;6.596;2022-11-20T17:36:35;33.50;;;12.85;;
28774;SDS011;15926;51.348;6.596;2022-11-20T17:39:03;28.73;;;12.15;;
28774;SDS011;15926;51.348;6.596;2022-11-20T17:41:29;25.00;;;11.82;;
28774;SDS011;15926;51.348;6.596;2022-11-20T17:43:56;30.27;;;11.63;;
28774;SDS011;15926;51.348;6.596;2022-11-20T17:46:24;31.45;;;12.32;;
28774;SDS011;15926;51.348;6.596;2022-11-20T17:48:50;26.80;;;11.73;;
28774;SDS011;15926;51.348;6.596;2022-11-20T17:51:17;30.13;;;11.93;;
28774;SDS011;15926;51.348;6.596;2022-11-20T17:53:44;26.60;;;11.52;;
28774;SDS011;15926;51.348;6.596;2022-11-20T17:56:11;22.65;;;11.95;;
28774;SDS011;15926;51.348;6.596;2022-11-20T17:58:56;26.15;;;10.80;;
28774;SDS011;15926;51.348;6.596;2022-11-20T18:01:22;26.25;;;12.15;;
28774;SDS011;15926;51.348;6.596;2022-11-20T18:03:48;23.58;;;11.15;;
28774;SDS011;15926;51.348;6.596;2022-11-20T18:06:16;20.63;;;10.30;;
28774;SDS011;15926;51.348;6.596;2022-11-20T18:08:47;18.13;;;10.20;;
28774;SDS011;15926;51.348;6.596;2022-11-20T18:11:24;21.27;;;10.90;;
28774;SDS011;15926;51.348;6.596;2022-11-20T18:13:51;18.02;;;9.88;;
28774;SDS011;15926;51.348;6.596;2022-11-20T18:16:38;21.25;;;9.75;;
28774;SDS011;15926;51.348;6.596;2022-11-20T18:19:06;18.65;;;9.82;;
28774;SDS011;15926;51.348;6.596;2022-11-20T18:21:32;19.98;;;9.80;;
28774;SDS011;15926;51.348;6.596;2022-11-20T18:23:59;21.85;;;10.23;;
28774;SDS011;15926;51.348;6.596;2022-11-20T18:26:25;16.63;;;9.07;;
28774;SDS011;15926;51.348;6.596;2022-11-20T18:28:51;24.60;;;10.32;;
28774;SDS011;15926;51.348;6.596;2022-11-20T18:31:18;19.30;;;9.38;;
28774;SDS011;15926;51.348;6.596;2022-11-20T18:33:44;17.77;;;9.18;;
28774;SDS011;15926;51.348;6.596;2022-11-20T18:36:14;19.92;;;10.43;;
28774;SDS011;15926;51.348;6.596;2022-11-20T18:38:41;16.67;;;9.10;;
28774;SDS011;15926;51.348;6.596;2022-11-20T18:41:09;23.45;;;10.18;;
28774;SDS011;15926;51.348;6.596;2022-11-20T18:43:55;19.95;;;10.65;;
28774;SDS011;15926;51.348;6.596;2022-11-20T18:46:39;17.50;;;9.90;;
28774;SDS011;15926;51.348;6.596;2022-11-20T18:49:06;18.10;;;9.55;;
28774;SDS011;15926;51.348;6.596;2022-11-20T18:51:32;17.63;;;9.13;;
28774;SDS011;15926;51.348;6.596;2022-11-20T18:53:58;14.90;;;9.45;;
28774;SDS011;15926;51.348;6.596;2022-11-20T18:56:24;19.40;;;9.48;;
28774;SDS011;15926;51.348;6.596;2022-11-20T18:58:50;16.10;;;10.05;;
28774;SDS011;15926;51.348;6.596;2022-11-20T19:01:16;22.65;;;10.68;;
28774;SDS011;15926;51.348;6.596;2022-11-20T19:03:42;18.73;;;9.90;;
28774;SDS011;15926;51.348;6.596;2022-11-20T19:06:12;15.23;;;9.43;;
28774;SDS011;15926;51.348;6.596;2022-11-20T19:08:38;14.38;;;9.43;;
28774;SDS011;15926;51.348;6.596;2022-11-20T19:11:05;15.10;;;8.55;;
28774;SDS011;15926;51.348;6.596;2022-11-20T19:13:32;15.63;;;9.63;;
28774;SDS011;15926;51.348;6.596;2022-11-20T19:16:05;13.85;;;8.55;;
28774;SDS011;15926;51.348;6.596;2022-11-20T19:18:31;19.40;;;8.15;;
28774;SDS011;15926;51.348;6.596;2022-11-20T19:20:57;17.52;;;7.65;;
28774;SDS011;15926;51.348;6.596;2022-11-20T19:23:31;17.38;;;9.82;;
28774;SDS011;15926;51.348;6.596;2022-11-20T19:25:57;17.02;;;8.85;;
28774;SDS011;15926;51.348;6.596;2022-11-20T19:28:25;16.38;;;10.65;;
28774;SDS011;15926;51.348;6.596;2022-11-20T19:30:51;19.75;;;11.40;;
28774;SDS011;15926;51.348;6.596;2022-11-20T19:33:17;19.88;;;10.52;;
28774;SDS011;15926;51.348;6.596;2022-11-20T19:35:43;24.38;;;13.57;;
28774;SDS011;15926;51.348;6.596;2022-11-20T19:38:09;22.67;;;12.27;;
28774;SDS011;15926;51.348;6.596;2022-11-20T19:40:35;23.05;;;12.77;;
28774;SDS011;15926;51.348;6.596;2022-11-20T19:43:01;23.52;;;11.50;;
28774;SDS011;15926;51.348;6.596;2022-11-20T19:45:29;21.48;;;12.32;;
28774;SDS011;15926;51.348;6.596;2022-11-20T19:47:56;31.23;;;14.73;;
28774;SDS011;15926;51.348;6.596;2022-11-20T19:50:22;26.83;;;12.45;;
28774;SDS011;15926;51.348;6.596;2022-11-20T19:52:48;19.58;;;12.40;;
28774;SDS011;15926;51.348;6.596;2022-11-20T19:55:14;24.05;;;12.75;;
28774;SDS011;15926;51.348;6.596;2022-11-20T19:57:40;30.13;;;12.75;;
28774;SDS011;15926;51.348;6.596;2022-11-20T20:00:06;31.15;;;12.18;;
28774;SDS011;15926;51.348;6.596;2022-11-20T20:02:33;29.00;;;15.07;;
28774;SDS011;15926;51.348;6.596;2022-11-20T20:04:59;25.05;;;12.90;;
28774;SDS011;15926;51.348;6.596;2022-11-20T20:07:25;22.70;;;12.90;;
28774;SDS011;15926;51.348;6.596;2022-11-20T20:09:51;27.63;;;13.07;;
28774;SDS011;15926;51.348;6.596;2022-11-20T20:12:17;30.40;;;14.70;;
28774;SDS011;15926;51.348;6.596;2022-11-20T20:14:43;30.95;;;12.27;;
28774;SDS011;15926;51.348;6.596;2022-11-20T20:17:09;28.75;;;13.30;;
28774;SDS011;15926;51.348;6.596;2022-11-20T20:19:35;28.95;;;14.80;;
28774;SDS011;15926;51.348;6.596;2022-11-20T20:22:01;31.75;;;15.13;;
28774;SDS011;15926;51.348;6.596;2022-11-20T20:24:27;30.38;;;13.32;;
28774;SDS011;15926;51.348;6.596;2022-11-20T20:26:53;32.95;;;12.98;;
28774;SDS011;15926;51.348;6.596;2022-11-20T20:29:19;32.13;;;15.38;;
28774;SDS011;15926;51.348;6.596;2022-11-20T20:31:46;36.08;;;16.30;;
28774;SDS011;15926;51.348;6.596;2022-11-20T20:34:12;29.55;;;15.60;;
28774;SDS011;15926;51.348;6.596;2022-11-20T20:36:38;33.92;;;15.85;;
28774;SDS011;15926;51.348;6.596;2022-11-20T20:39:04;30.77;;;16.30;;
28774;SDS011;15926;51.348;6.596;2022-11-20T20:41:30;38.08;;;15.90;;
28774;SDS011;15926;51.348;6.596;2022-11-20T20:43:57;35.25;;;16.10;;
28774;SDS011;15926;51.348;6.596;2022-11-20T20:46:41;32.20;;;15.25;;
28774;SDS011;15926;51.348;6.596;2022-11-20T20:49:07;33.05;;;15.90;;
28774;SDS011;15926;51.348;6.596;2022-11-20T20:51:34;31.23;;;17.15;;
28774;SDS011;15926;51.348;6.596;2022-11-20T20:54:00;30.05;;;16.05;;
28774;SDS011;15926;51.348;6.596;2022-11-20T20:56:26;35.55;;;15.07;;
28774;SDS011;15926;51.348;6.596;2022-11-20T20:58:52;35.65;;;17.33;;
28774;SDS011;15926;51.348;6.596;2022-11-20T21:01:18;30.13;;;15.60;;
28774;SDS011;15926;51.348;6.596;2022-11-20T21:03:45;35.40;;;17.02;;
28774;SDS011;15926;51.348;6.596;2022-11-20T21:06:11;40.00;;;17.30;;
28774;SDS011;15926;51.348;6.596;2022-11-20T21:08:37;38.17;;;18.35;;
28774;SDS011;15926;51.348;6.596;2022-11-20T21:11:05;34.42;;;17.27;;
28774;SDS011;15926;51.348;6.596;2022-11-20T21:13:32;31.15;;;17.83;;
28774;SDS011;15926;51.348;6.596;2022-11-20T21:15:58;35.72;;;19.13;;
28774;SDS011;15926;51.348;6.596;2022-11-20T21:18:25;37.08;;;17.55;;
28774;SDS011;15926;51.348;6.596;2022-11-20T21:20:51;36.85;;;17.23;;